createdAt,value
2023-04-10T00:00:24.886Z,99.99
2023-04-10T00:01:25.840Z,99.99
2023-04-10T00:02:26.762Z,99.99
2023-04-10T00:03:27.768Z,99.99
2023-04-10T00:04:28.622Z,99.99
2023-04-10T00:05:28.833Z,99.99
2023-04-10T00:06:29.615Z,99.99
2023-04-10T00:07:30.596Z,99.99
2023-04-10T00:08:31.117Z,99.99
2023-04-10T00:09:32.011Z,99.99
2023-04-10T00:10:32.637Z,99.99
2023-04-10T00:11:33.142Z,99.99
2023-04-10T00:12:33.826Z,99.99
2023-04-10T00:13:34.106Z,99.99
2023-04-10T00:14:34.588Z,99.99
2023-04-10T00:15:34.692Z,99.99
2023-04-10T00:16:35.534Z,99.99
2023-04-10T00:17:36.594Z,99.99
2023-04-10T00:18:37.036Z,99.99
2023-04-10T00:19:37.799Z,99.99
2023-04-10T00:20:38.407Z,99.99
2023-04-10T00:21:39.116Z,99.99
2023-04-10T00:22:39.396Z,99.99
2023-04-10T00:23:40.155Z,99.99
2023-04-10T00:24:41.174Z,99.99
2023-04-10T00:25:41.868Z,99.99
2023-04-10T00:26:42.766Z,99.99
2023-04-10T00:27:43.044Z,99.99
2023-04-10T00:28:43.552Z,99.99
2023-04-10T00:29:44.488Z,99.99
2023-04-10T00:30:44.709Z,99.99
2023-04-10T00:31:46.118Z,99.99
2023-04-10T00:32:46.957Z,99.99
2023-04-10T00:33:47.296Z,99.99
2023-04-10T00:34:47.261Z,99.99
2023-04-10T00:35:48.300Z,99.99
2023-04-10T00:36:48.998Z,99.99
2023-04-10T00:37:49.711Z,99.99
2023-04-10T00:38:50.001Z,99.99
2023-04-10T00:39:50.935Z,99.99
2023-04-10T00:40:51.571Z,99.99
2023-04-10T00:41:51.710Z,99.99
2023-04-10T00:42:51.861Z,99.99
2023-04-10T00:43:52.799Z,99.99
2023-04-10T00:44:52.661Z,99.99
2023-04-10T00:45:55.163Z,99.99
2023-04-10T00:46:54.062Z,99.99
2023-04-10T00:47:54.419Z,99.99
2023-04-10T00:48:55.060Z,99.99
2023-04-10T00:49:55.826Z,99.99
2023-04-10T00:50:56.668Z,99.99
2023-04-10T00:51:58.400Z,99.99
2023-04-10T00:52:58.246Z,99.99
2023-04-10T00:53:59.323Z,99.99
2023-04-10T00:55:00.251Z,99.99
2023-04-10T00:56:00.756Z,99.99
2023-04-10T00:57:01.297Z,99.99
2023-04-10T00:58:02.139Z,99.99
2023-04-10T00:59:03.605Z,99.99
2023-04-10T01:00:02.997Z,99.99
2023-04-10T01:01:03.341Z,99.99
2023-04-10T01:02:04.660Z,99.99
2023-04-10T01:03:05.032Z,99.99
2023-04-10T01:04:06.106Z,99.99
2023-04-10T01:05:05.466Z,99.99
2023-04-10T01:06:05.692Z,99.99
2023-04-10T01:07:06.168Z,99.99
2023-04-10T01:08:06.487Z,99.99
2023-04-10T01:09:06.595Z,99.99
2023-04-10T01:10:06.706Z,99.99
2023-04-10T01:11:07.218Z,99.99
2023-04-10T01:12:07.769Z,99.99
2023-04-10T01:13:08.671Z,99.99
2023-04-10T01:14:08.970Z,99.99
2023-04-10T01:15:09.879Z,99.99
2023-04-10T01:16:09.784Z,99.99
2023-04-10T01:17:10.844Z,99.99
2023-04-10T01:18:10.873Z,99.99
2023-04-10T01:19:11.368Z,99.99
2023-04-10T01:20:12.117Z,99.99
2023-04-10T01:21:12.751Z,99.99
2023-04-10T01:22:13.254Z,99.99
2023-04-10T01:23:13.973Z,99.99
2023-04-10T01:24:14.932Z,99.99
2023-04-10T01:25:15.446Z,99.99
2023-04-10T01:26:15.936Z,99.99
2023-04-10T01:27:16.446Z,99.99
2023-04-10T01:28:16.721Z,99.99
2023-04-10T01:29:17.257Z,99.99
2023-04-10T01:30:18.169Z,99.99
2023-04-10T01:31:19.124Z,99.99
2023-04-10T01:32:19.965Z,99.99
2023-04-10T01:33:20.358Z,99.99
2023-04-10T01:34:20.938Z,99.99
2023-04-10T01:35:21.705Z,99.99
2023-04-10T01:36:22.790Z,99.99
2023-04-10T01:37:23.072Z,99.99
2023-04-10T01:38:23.577Z,99.99
2023-04-10T01:39:24.260Z,99.99
2023-04-10T01:40:25.203Z,99.99
2023-04-10T01:41:25.784Z,99.99
2023-04-10T01:42:26.524Z,99.99
2023-04-10T01:43:27.443Z,99.99
2023-04-10T01:44:27.803Z,99.99
2023-04-10T01:45:28.528Z,99.99
2023-04-10T01:46:29.373Z,99.99
2023-04-10T01:47:29.888Z,99.99
2023-04-10T01:48:30.565Z,99.99
2023-04-10T01:49:31.274Z,99.99
2023-04-10T01:50:32.223Z,99.99
2023-04-10T01:51:32.793Z,99.99
2023-04-10T01:52:33.088Z,99.99
2023-04-10T01:53:33.401Z,99.99
2023-04-10T01:54:33.912Z,99.99
2023-04-10T01:55:34.749Z,99.99
2023-04-10T01:56:35.446Z,99.99
2023-04-10T01:57:36.372Z,99.99
2023-04-10T01:58:37.094Z,99.99
2023-04-10T01:59:37.769Z,99.99
2023-04-10T02:00:37.856Z,99.99
2023-04-10T02:01:39.017Z,99.99
2023-04-10T02:02:39.712Z,99.99
2023-04-10T02:03:40.223Z,99.99
2023-04-10T02:04:40.730Z,99.99
2023-04-10T02:05:40.907Z,99.99
2023-04-10T02:06:41.647Z,99.99
2023-04-10T02:07:42.146Z,99.99
2023-04-10T02:08:43.218Z,99.99
2023-04-10T02:09:43.720Z,99.99
2023-04-10T02:10:44.030Z,99.99
2023-04-10T02:11:44.459Z,99.99
2023-04-10T02:12:44.805Z,99.99
2023-04-10T02:13:45.115Z,99.99
2023-04-10T02:14:45.792Z,99.99
2023-04-10T02:15:46.729Z,99.99
2023-04-10T02:16:47.261Z,99.99
2023-04-10T02:17:47.613Z,99.99
2023-04-10T02:18:48.165Z,99.99
2023-04-10T02:19:48.653Z,99.99
2023-04-10T02:20:49.446Z,99.99
2023-04-10T02:21:49.848Z,99.99
2023-04-10T02:22:50.523Z,99.99
2023-04-10T02:23:50.846Z,99.99
2023-04-10T02:24:51.156Z,99.99
2023-04-10T02:25:51.940Z,99.99
2023-04-10T02:26:52.752Z,99.99
2023-04-10T02:27:53.667Z,99.99
2023-04-10T02:28:53.961Z,99.99
2023-04-10T02:29:54.864Z,99.99
2023-04-10T02:30:55.421Z,99.99
2023-04-10T02:31:55.559Z,99.99
2023-04-10T02:32:56.395Z,99.99
2023-04-10T02:33:56.968Z,99.99
2023-04-10T02:34:57.473Z,99.99
2023-04-10T02:35:58.519Z,99.99
2023-04-10T02:36:58.567Z,99.99
2023-04-10T02:37:58.849Z,99.99
2023-04-10T02:38:59.394Z,99.99
2023-04-10T02:39:59.897Z,99.99
2023-04-10T02:41:00.651Z,99.99
2023-04-10T02:42:01.034Z,99.99
2023-04-10T02:43:01.550Z,99.99
2023-04-10T02:44:02.266Z,99.99
2023-04-10T02:45:02.592Z,99.99
2023-04-10T02:46:03.112Z,99.99
2023-04-10T02:47:03.865Z,99.99
2023-04-10T02:48:05.030Z,99.99
2023-04-10T02:49:05.680Z,99.99
2023-04-10T02:50:07.009Z,99.99
2023-04-10T02:51:07.971Z,99.99
2023-04-10T02:52:08.401Z,99.99
2023-04-10T02:53:08.914Z,99.99
2023-04-10T02:54:09.643Z,99.99
2023-04-10T02:55:10.126Z,99.99
2023-04-10T02:56:10.796Z,99.99
2023-04-10T02:57:11.470Z,99.99
2023-04-10T02:58:13.892Z,99.99
2023-04-10T02:59:12.907Z,99.99
2023-04-10T03:00:13.485Z,99.99
2023-04-10T03:01:14.369Z,99.99
2023-04-10T03:02:14.823Z,99.99
2023-04-10T03:03:16.311Z,99.99
2023-04-10T03:04:17.055Z,99.99
2023-04-10T03:05:16.962Z,99.99
2023-04-10T03:06:17.923Z,99.99
2023-04-10T03:07:18.673Z,99.99
2023-04-10T03:08:18.943Z,99.99
2023-04-10T03:09:19.364Z,99.99
2023-04-10T03:10:19.847Z,99.99
2023-04-10T03:11:19.782Z,99.99
2023-04-10T03:12:20.938Z,99.99
2023-04-10T03:13:21.833Z,99.99
2023-04-10T03:14:22.139Z,99.99
2023-04-10T03:15:22.628Z,99.99
2023-04-10T03:16:23.439Z,99.99
2023-04-10T03:17:23.304Z,99.99
2023-04-10T03:18:24.112Z,99.99
2023-04-10T03:19:24.640Z,99.99
2023-04-10T03:20:25.226Z,99.99
2023-04-10T03:21:25.948Z,99.99
2023-04-10T03:22:26.138Z,99.99
2023-04-10T03:23:26.830Z,99.99
2023-04-10T03:24:27.550Z,99.99
2023-04-10T03:25:28.242Z,99.99
2023-04-10T03:26:28.764Z,99.99
2023-04-10T03:27:29.451Z,99.99
2023-04-10T03:28:30.096Z,99.99
2023-04-10T03:29:30.594Z,99.99
2023-04-10T03:30:31.501Z,99.99
2023-04-10T03:31:32.491Z,99.99
2023-04-10T03:32:32.563Z,99.99
2023-04-10T03:33:33.193Z,99.99
2023-04-10T03:34:33.627Z,99.99
2023-04-10T03:35:34.374Z,99.99
2023-04-10T03:36:34.462Z,99.99
2023-04-10T03:37:34.376Z,99.99
2023-04-10T03:38:35.052Z,99.99
2023-04-10T03:39:35.752Z,99.99
2023-04-10T03:40:36.247Z,99.99
2023-04-10T03:41:36.796Z,99.99
2023-04-10T03:42:37.417Z,99.99
2023-04-10T03:43:38.205Z,99.99
2023-04-10T03:44:38.479Z,99.99
2023-04-10T03:45:39.562Z,99.99
2023-04-10T03:46:39.936Z,99.99
2023-04-10T03:47:40.924Z,99.99
2023-04-10T03:48:41.948Z,99.99
2023-04-10T03:49:42.847Z,99.99
2023-04-10T03:50:42.946Z,99.99
2023-04-10T03:51:43.682Z,99.99
2023-04-10T03:52:44.442Z,99.99
2023-04-10T03:53:45.147Z,99.99
2023-04-10T03:54:46.099Z,99.99
2023-04-10T03:55:46.827Z,99.99
2023-04-10T03:56:47.608Z,99.99
2023-04-10T03:57:48.505Z,99.99
2023-04-10T03:58:49.233Z,99.99
2023-04-10T03:59:49.507Z,99.99
2023-04-10T04:00:49.993Z,99.99
2023-04-10T04:01:51.034Z,99.99
2023-04-10T04:02:52.125Z,99.99
2023-04-10T04:03:52.574Z,99.99
2023-04-10T04:04:52.508Z,99.99
2023-04-10T04:05:53.220Z,99.99
2023-04-10T04:06:53.380Z,99.99
2023-04-10T04:07:53.502Z,99.99
2023-04-10T04:08:54.391Z,99.99
2023-04-10T04:09:56.457Z,99.99
2023-04-10T04:10:55.077Z,99.99
2023-04-10T04:11:55.990Z,99.99
2023-04-10T04:12:56.412Z,99.99
2023-04-10T04:13:56.664Z,99.99
2023-04-10T04:14:57.159Z,99.99
2023-04-10T04:15:57.473Z,99.99
2023-04-10T04:16:58.241Z,99.99
2023-04-10T04:17:59.026Z,99.99
2023-04-10T04:18:59.935Z,99.99
2023-04-10T04:20:00.460Z,99.99
2023-04-10T04:21:00.947Z,99.99
2023-04-10T04:22:01.797Z,99.99
2023-04-10T04:23:02.562Z,99.99
2023-04-10T04:24:03.071Z,99.99
2023-04-10T04:25:03.408Z,99.99
2023-04-10T04:26:04.162Z,99.99
2023-04-10T04:27:04.466Z,99.99
2023-04-10T04:28:04.967Z,99.99
2023-04-10T04:29:05.468Z,99.99
2023-04-10T04:30:05.761Z,99.99
2023-04-10T04:31:06.672Z,99.99
2023-04-10T04:32:07.467Z,99.99
2023-04-10T04:33:07.821Z,99.99
2023-04-10T04:34:08.797Z,99.99
2023-04-10T04:35:09.089Z,99.99
2023-04-10T04:36:09.832Z,99.99
2023-04-10T04:37:10.488Z,99.99
2023-04-10T04:38:11.211Z,99.99
2023-04-10T04:39:11.713Z,99.99
2023-04-10T04:40:12.428Z,99.99
2023-04-10T04:41:12.740Z,99.99
2023-04-10T04:42:13.612Z,99.99
2023-04-10T04:43:14.277Z,99.99
2023-04-10T04:44:14.365Z,99.99
2023-04-10T04:45:14.701Z,99.99
2023-04-10T04:46:15.431Z,99.99
2023-04-10T04:47:16.244Z,99.99
2023-04-10T04:48:17.218Z,99.99
2023-04-10T04:49:17.958Z,99.99
2023-04-10T04:50:18.457Z,99.99
2023-04-10T04:51:19.174Z,99.99
2023-04-10T04:52:19.919Z,99.99
2023-04-10T04:53:20.572Z,99.99
2023-04-10T04:54:21.463Z,99.99
2023-04-10T04:55:21.590Z,99.99
2023-04-10T04:56:22.316Z,99.99
2023-04-10T04:57:23.046Z,99.99
2023-04-10T04:58:23.313Z,99.99
2023-04-10T04:59:23.616Z,99.99
2023-04-10T05:00:24.120Z,99.99
2023-04-10T05:01:24.668Z,99.99
2023-04-10T05:02:25.891Z,99.99
2023-04-10T05:03:26.007Z,99.99
2023-04-10T05:04:26.445Z,99.99
2023-04-10T05:05:26.098Z,99.99
2023-04-10T05:06:26.590Z,99.99
2023-04-10T05:07:27.555Z,99.99
2023-04-10T05:08:28.145Z,99.99
2023-04-10T05:09:28.865Z,99.99
2023-04-10T05:10:29.561Z,99.99
2023-04-10T05:11:29.853Z,99.99
2023-04-10T05:12:30.066Z,99.99
2023-04-10T05:13:30.680Z,99.99
2023-04-10T05:14:30.948Z,99.99
2023-04-10T05:15:31.763Z,99.99
2023-04-10T05:16:31.675Z,99.99
2023-04-10T05:17:32.435Z,99.99
2023-04-10T05:18:33.014Z,99.99
2023-04-10T05:19:33.703Z,99.99
2023-04-10T05:20:34.201Z,99.99
2023-04-10T05:21:34.533Z,99.99
2023-04-10T05:22:35.290Z,99.99
2023-04-10T05:23:35.517Z,99.99
2023-04-10T05:24:36.425Z,99.99
2023-04-10T05:25:37.145Z,99.99
2023-04-10T05:26:37.646Z,99.99
2023-04-10T05:27:38.368Z,99.99
2023-04-10T05:28:38.468Z,99.99
2023-04-10T05:29:39.147Z,99.99
2023-04-10T05:30:39.828Z,99.99
2023-04-10T05:31:41.136Z,99.99
2023-04-10T05:32:41.261Z,99.99
2023-04-10T05:33:42.065Z,99.99
2023-04-10T05:34:42.762Z,99.99
2023-04-10T05:35:43.376Z,99.99
2023-04-10T05:36:43.817Z,99.99
2023-04-10T05:37:44.745Z,99.99
2023-04-10T05:38:44.928Z,99.99
2023-04-10T05:39:44.883Z,99.99
2023-04-10T05:40:45.584Z,99.99
2023-04-10T05:41:46.657Z,99.99
2023-04-10T05:42:47.181Z,99.99
2023-04-10T05:43:47.846Z,99.99
2023-04-10T05:44:48.315Z,99.99
2023-04-10T05:45:49.200Z,99.99
2023-04-10T05:46:49.981Z,99.99
2023-04-10T05:47:50.986Z,99.99
2023-04-10T05:48:50.905Z,99.99
2023-04-10T05:49:51.844Z,99.99
2023-04-10T05:50:52.158Z,99.99
2023-04-10T05:51:52.473Z,99.99
2023-04-10T05:52:52.403Z,99.99
2023-04-10T05:53:52.823Z,99.99
2023-04-10T05:54:53.348Z,99.99
2023-04-10T05:55:54.020Z,99.99
2023-04-10T05:56:54.561Z,99.99
2023-04-10T05:57:55.071Z,99.99
2023-04-10T05:58:56.019Z,99.99
2023-04-10T05:59:57.002Z,99.99
2023-04-10T06:00:57.691Z,99.99
2023-04-10T06:01:58.287Z,99.99
2023-04-10T06:02:59.500Z,99.99
2023-04-10T06:03:59.932Z,99.99
2023-04-10T06:05:00.107Z,99.99
2023-04-10T06:06:00.001Z,99.99
2023-04-10T06:07:00.497Z,99.99
2023-04-10T06:08:03.517Z,99.99
2023-04-10T06:09:01.709Z,99.99
2023-04-10T06:10:02.020Z,99.99
2023-04-10T06:11:02.971Z,99.99
2023-04-10T06:12:03.263Z,99.3
2023-04-10T06:13:03.253Z,98.4
2023-04-10T06:14:03.731Z,99.16
2023-04-10T06:15:04.287Z,98.49
2023-04-10T06:16:05.230Z,98.59
2023-04-10T06:17:05.433Z,98.3
2023-04-10T06:18:05.634Z,98.11
2023-04-10T06:19:06.572Z,97.64
2023-04-10T06:20:06.692Z,97.83
2023-04-10T06:21:07.230Z,97.74
2023-04-10T06:22:07.789Z,98.11
2023-04-10T06:23:08.754Z,97.36
2023-04-10T06:24:10.551Z,96.41
2023-04-10T06:25:10.444Z,96.22
2023-04-10T06:26:11.347Z,96.03
2023-04-10T06:27:12.249Z,96.69
2023-04-10T06:28:12.746Z,96.12
2023-04-10T06:29:13.238Z,96.5
2023-04-10T06:30:14.343Z,96.17
2023-04-10T06:31:14.735Z,95.6
2023-04-10T06:32:15.245Z,94.84
2023-04-10T06:33:15.944Z,93.94
2023-04-10T06:34:16.287Z,90.85
2023-04-10T06:35:16.825Z,88.52
2023-04-10T06:36:17.852Z,85.66
2023-04-10T06:37:18.531Z,81.32
2023-04-10T06:38:19.321Z,78.31
2023-04-10T06:39:20.256Z,75.43
2023-04-10T06:40:20.805Z,72.8
2023-04-10T06:41:21.733Z,69.87
2023-04-10T06:42:22.434Z,67.43
2023-04-10T06:43:23.161Z,66.13
2023-04-10T06:44:23.564Z,65.77
2023-04-10T06:45:24.410Z,64.34
2023-04-10T06:46:24.634Z,61.79
2023-04-10T06:47:25.464Z,60.93
2023-04-10T06:48:25.939Z,60.64
2023-04-10T06:49:26.246Z,59.97
2023-04-10T06:50:27.252Z,60.64
2023-04-10T06:51:27.866Z,59.97
2023-04-10T06:52:28.557Z,59.69
2023-04-10T06:53:29.327Z,59.14
2023-04-10T06:54:29.768Z,58.09
2023-04-10T06:55:30.486Z,56.75
2023-04-10T06:56:30.985Z,56.3
2023-04-10T06:57:31.503Z,56.59
2023-04-10T06:58:32.244Z,56.77
2023-04-10T06:59:33.138Z,57.73
2023-04-10T07:00:33.621Z,57.26
2023-04-10T07:01:34.594Z,56.1
2023-04-10T07:02:34.588Z,55.91
2023-04-10T07:03:35.753Z,55.36
2023-04-10T07:04:36.719Z,54.89
2023-04-10T07:05:37.961Z,54.79
2023-04-10T07:06:38.264Z,54.53
2023-04-10T07:07:38.834Z,54.75
2023-04-10T07:08:39.664Z,53.99
2023-04-10T07:09:40.346Z,53.72
2023-04-10T07:10:40.696Z,53.08
2023-04-10T07:11:41.461Z,53.85
2023-04-10T07:12:41.749Z,54.25
2023-04-10T07:13:42.543Z,53.78
2023-04-10T07:14:43.434Z,53.49
2023-04-10T07:15:44.754Z,53.78
2023-04-10T07:16:45.882Z,53.01
2023-04-10T07:17:46.227Z,51.95
2023-04-10T07:18:47.578Z,51.86
2023-04-10T07:19:47.578Z,51.86
2023-04-10T07:20:48.718Z,50.9
2023-04-10T07:21:49.107Z,51.06
2023-04-10T07:22:49.627Z,51.25
2023-04-10T07:23:49.825Z,51.54
2023-04-10T07:24:50.675Z,51.25
2023-04-10T07:25:51.584Z,51.64
2023-04-10T07:26:52.360Z,52.12
2023-04-10T07:27:53.089Z,51.37
2023-04-10T07:28:53.800Z,50.23
2023-04-10T07:29:54.137Z,51.18
2023-04-10T07:30:54.838Z,51.47
2023-04-10T07:31:55.318Z,50.78
2023-04-10T07:32:56.574Z,51.06
2023-04-10T07:33:56.818Z,51.06
2023-04-10T07:34:58.079Z,51.83
2023-04-10T07:35:58.923Z,54.21
2023-04-10T07:36:59.774Z,53.63
2023-04-10T07:38:00.494Z,53.63
2023-04-10T07:39:01.698Z,54.01
2023-04-10T07:40:02.716Z,53.7
2023-04-10T07:41:03.514Z,51.97
2023-04-10T07:42:04.050Z,52.16
2023-04-10T07:43:04.555Z,53.38
2023-04-10T07:44:05.321Z,53.7
2023-04-10T07:45:05.951Z,53.7
2023-04-10T07:46:07.011Z,53.99
2023-04-10T07:47:07.176Z,53.7
2023-04-10T07:48:08.072Z,54.85
2023-04-10T07:49:08.782Z,54.85
2023-04-10T07:50:08.516Z,55.04
2023-04-10T07:51:08.873Z,55.23
2023-04-10T07:52:09.634Z,55.26
2023-04-10T07:53:10.137Z,55.55
2023-04-10T07:54:11.003Z,54.52
2023-04-10T07:55:11.889Z,53.94
2023-04-10T07:56:12.408Z,54.23
2023-04-10T07:57:13.115Z,54.33
2023-04-10T07:58:13.637Z,53.11
2023-04-10T07:59:13.991Z,51.67
2023-04-10T08:00:14.694Z,51.37
2023-04-10T08:01:15.017Z,50.23
2023-04-10T08:02:16.107Z,50.25
2023-04-10T08:03:16.773Z,49.57
2023-04-10T08:04:17.767Z,50.05
2023-04-10T08:05:18.303Z,50.25
2023-04-10T08:06:19.195Z,51.31
2023-04-10T08:07:19.752Z,52.17
2023-04-10T08:08:20.516Z,52.29
2023-04-10T08:09:21.478Z,51.59
2023-04-10T08:10:22.462Z,53.03
2023-04-10T08:11:22.983Z,53.32
2023-04-10T08:12:23.123Z,53.61
2023-04-10T08:13:23.435Z,54.77
2023-04-10T08:14:24.018Z,54.57
2023-04-10T08:15:24.570Z,54.45
2023-04-10T08:16:24.924Z,54.06
2023-04-10T08:17:25.276Z,53.78
2023-04-10T08:18:26.068Z,53.13
2023-04-10T08:19:26.587Z,52.65
2023-04-10T08:20:27.106Z,51.81
2023-04-10T08:21:28.332Z,51.43
2023-04-10T08:22:29.046Z,51.53
2023-04-10T08:23:29.989Z,51.55
2023-04-10T08:24:30.163Z,50.97
2023-04-10T08:25:31.015Z,49.65
2023-04-10T08:26:31.547Z,49.63
2023-04-10T08:27:32.058Z,48.97
2023-04-10T08:28:32.779Z,49.74
2023-04-10T08:29:33.109Z,49.65
2023-04-10T08:30:33.863Z,49.36
2023-04-10T08:31:34.779Z,49.55
2023-04-10T08:32:35.792Z,49
2023-04-10T08:33:35.496Z,47.08
2023-04-10T08:34:36.233Z,47.19
2023-04-10T08:35:36.602Z,47.12
2023-04-10T08:36:37.513Z,44.52
2023-04-10T08:37:38.019Z,44.93
2023-04-10T08:38:39.098Z,45.39
2023-04-10T08:39:39.867Z,46.55
2023-04-10T08:40:40.589Z,46.42
2023-04-10T08:41:41.158Z,46.78
2023-04-10T08:42:42.149Z,47.34
2023-04-10T08:43:42.670Z,48.45
2023-04-10T08:44:42.986Z,50.08
2023-04-10T08:45:43.509Z,51.23
2023-04-10T08:46:44.194Z,50.59
2023-04-10T08:47:44.995Z,49.53
2023-04-10T08:48:44.887Z,49.05
2023-04-10T08:49:45.404Z,49.82
2023-04-10T08:50:45.993Z,49.91
2023-04-10T08:51:47.831Z,50.18
2023-04-10T08:52:46.505Z,50.66
2023-04-10T08:53:47.243Z,52.2
2023-04-10T08:54:47.258Z,51.59
2023-04-10T08:55:47.962Z,53.03
2023-04-10T08:56:48.703Z,51.88
2023-04-10T08:58:00.845Z,52.1
2023-04-10T08:58:49.602Z,51.33
2023-04-10T08:59:50.503Z,48.74
2023-04-10T09:00:51.263Z,46.23
2023-04-10T09:01:52.246Z,46.33
2023-04-10T09:02:52.907Z,47.39
2023-04-10T09:03:53.356Z,48.13
2023-04-10T09:04:53.415Z,48.43
2023-04-10T09:05:54.330Z,46.62
2023-04-10T09:06:55.073Z,47.49
2023-04-10T09:07:55.440Z,47.68
2023-04-10T09:08:56.545Z,48.38
2023-04-10T09:09:57.069Z,48.21
2023-04-10T09:11:01.021Z,48.79
2023-04-10T09:11:58.952Z,48.21
2023-04-10T09:12:59.651Z,47.65
2023-04-10T09:14:00.518Z,44.02
2023-04-10T09:15:01.446Z,42.57
2023-04-10T09:16:02.343Z,41.71
2023-04-10T09:17:02.918Z,41.89
2023-04-10T09:18:03.948Z,42.4
2023-04-10T09:19:05.674Z,43.27
2023-04-10T09:20:04.397Z,42.3
2023-04-10T09:21:04.522Z,42.42
2023-04-10T09:22:05.583Z,43.12
2023-04-10T09:23:06.310Z,43.98
2023-04-10T09:24:06.457Z,42.93
2023-04-10T09:25:07.350Z,41.77
2023-04-10T09:26:08.095Z,39.18
2023-04-10T09:27:08.656Z,37.63
2023-04-10T09:29:10.233Z,37.1
2023-04-10T09:30:11.203Z,36.52
2023-04-10T09:31:11.930Z,35.16
2023-04-10T09:32:13.107Z,34.87
2023-04-10T09:33:12.878Z,35.06
2023-04-10T09:34:13.377Z,36.22
2023-04-10T09:35:14.297Z,34.78
2023-04-10T09:36:14.998Z,34
2023-04-10T09:37:15.870Z,33.6
2023-04-10T09:38:16.357Z,34.47
2023-04-10T09:39:17.105Z,33.7
2023-04-10T09:40:17.696Z,32.91
2023-04-10T09:41:18.251Z,32.81
2023-04-10T09:42:18.919Z,33.66
2023-04-10T09:43:19.411Z,34.05
2023-04-10T09:44:20.347Z,33.18
2023-04-10T09:45:20.985Z,32.7
2023-04-10T09:46:22.031Z,33.94
2023-04-10T09:47:22.896Z,34.13
2023-04-10T09:48:23.773Z,32.79
2023-04-10T09:49:24.687Z,32.39
2023-04-10T09:50:25.451Z,33.36
2023-04-10T09:51:25.842Z,33.17
2023-04-10T09:52:26.813Z,33.94
2023-04-10T09:53:27.175Z,33.26
2023-04-10T09:54:27.907Z,32.97
2023-04-10T09:55:30.401Z,34.7
2023-04-10T09:56:29.280Z,35
2023-04-10T09:57:30.098Z,36.85
2023-04-10T09:58:30.792Z,36.17
2023-04-10T09:59:31.470Z,34.45
2023-04-10T10:01:32.917Z,31.94
2023-04-10T10:02:33.353Z,33.7
2023-04-10T10:03:34.540Z,34.18
2023-04-10T10:04:35.082Z,33
2023-04-10T10:05:35.832Z,33
2023-04-10T10:06:36.453Z,32.6
2023-04-10T10:07:36.850Z,32.79
2023-04-10T10:08:37.588Z,33.45
2023-04-10T10:09:38.556Z,34.59
2023-04-10T10:10:39.560Z,35.27
2023-04-10T10:11:40.324Z,35.94
2023-04-10T10:12:41.068Z,34.8
2023-04-10T10:13:41.273Z,33.84
2023-04-10T10:14:42.915Z,33.92
2023-04-10T10:17:44.525Z,38.26
2023-04-10T10:18:45.074Z,37.12
2023-04-10T10:19:46.293Z,35.48
2023-04-10T10:20:46.802Z,35.88
2023-04-10T10:21:47.314Z,37.62
2023-04-10T10:22:48.246Z,34.84
2023-04-10T10:23:48.844Z,34.45
2023-04-10T10:24:49.626Z,33.39
2023-04-10T10:25:50.255Z,33.97
2023-04-10T10:26:51.160Z,32.89
2023-04-10T10:27:51.935Z,33.66
2023-04-10T10:28:52.088Z,34.7
2023-04-10T10:29:52.456Z,37.6
2023-04-10T10:30:52.744Z,35.96
2023-04-10T10:31:53.912Z,36.17
2023-04-10T10:32:54.262Z,35.69
2023-04-10T10:33:54.722Z,35.02
2023-04-10T10:34:55.629Z,35.13
2023-04-10T10:35:56.620Z,36.85
2023-04-10T10:36:56.957Z,37.52
2023-04-10T10:37:57.781Z,38.01
2023-04-10T10:38:59.587Z,38.1
2023-04-10T10:39:58.962Z,38.41
2023-04-10T10:40:59.872Z,38.6
2023-04-10T10:42:00.575Z,37.65
2023-04-10T10:43:01.252Z,34.28
2023-04-10T10:44:01.970Z,34.38
2023-04-10T10:45:04.894Z,34.08
2023-04-10T10:46:03.840Z,33.87
2023-04-10T10:47:04.622Z,34.74
2023-04-10T10:48:05.651Z,35.5
2023-04-10T10:49:06.447Z,35.4
2023-04-10T10:50:07.032Z,35.21
2023-04-10T10:51:07.651Z,36.17
2023-04-10T10:52:08.215Z,37.43
2023-04-10T10:53:08.550Z,38.87
2023-04-10T10:54:09.249Z,38.39
2023-04-10T10:55:09.739Z,39.76
2023-04-10T10:56:10.543Z,39.47
2023-04-10T10:57:11.210Z,38.43
2023-04-10T10:58:11.963Z,36.79
2023-04-10T10:59:12.698Z,35.24
2023-04-10T11:00:13.217Z,34.06
2023-04-10T11:01:16.285Z,32.6
2023-04-10T11:02:15.203Z,34.03
2023-04-10T11:03:15.409Z,36.81
2023-04-10T11:04:15.498Z,39.62
2023-04-10T11:05:16.306Z,39.14
2023-04-10T11:06:17.070Z,37.02
2023-04-10T11:07:17.202Z,37.02
2023-04-10T11:08:18.174Z,35.17
2023-04-10T11:09:18.708Z,35.17
2023-04-10T11:10:19.415Z,35.25
2023-04-10T11:11:19.571Z,35.83
2023-04-10T11:12:20.382Z,38.43
2023-04-10T11:13:21.433Z,39.39
2023-04-10T11:14:22.011Z,38.14
2023-04-10T11:15:22.409Z,39.87
2023-04-10T11:16:22.969Z,41.72
2023-04-10T11:17:23.462Z,42.97
2023-04-10T11:18:23.903Z,40.37
2023-04-10T11:19:28.210Z,39.12
2023-04-10T11:20:25.114Z,40.76
2023-04-10T11:21:25.599Z,41.92
2023-04-10T11:22:26.111Z,41.44
2023-04-10T11:23:26.928Z,41.72
2023-04-10T11:24:27.444Z,39.89
2023-04-10T11:25:27.948Z,42.59
2023-04-10T11:26:28.720Z,41.84
2023-04-10T11:27:31.700Z,38.76
2023-04-10T11:28:30.444Z,39.34
2023-04-10T11:29:31.002Z,38.37
2023-04-10T11:30:31.306Z,39.14
2023-04-10T11:31:32.119Z,40.39
2023-04-10T11:32:32.985Z,40.3
2023-04-10T11:33:33.820Z,37.21
2023-04-10T11:34:34.371Z,36.13
2023-04-10T11:35:35.368Z,35.08
2023-04-10T11:36:36.316Z,36.81
2023-04-10T11:37:36.934Z,39.12
2023-04-10T11:38:37.480Z,41.63
2023-04-10T11:39:38.262Z,41.72
2023-04-10T11:40:39.108Z,41.24
2023-04-10T11:41:39.085Z,39.31
2023-04-10T11:42:39.635Z,38.74
2023-04-10T11:43:39.963Z,39.91
2023-04-10T11:44:40.571Z,40.39
2023-04-10T11:45:41.443Z,38.66
2023-04-10T11:46:42.269Z,39.06
2023-04-10T11:47:42.515Z,38.2
2023-04-10T11:48:43.390Z,37.13
2023-04-10T11:49:44.463Z,37.43
2023-04-10T11:50:45.325Z,38.37
2023-04-10T11:51:45.236Z,38.95
2023-04-10T11:52:45.981Z,39.43
2023-04-10T11:53:46.572Z,39.99
2023-04-10T11:54:47.153Z,38.85
2023-04-10T11:55:47.896Z,37.7
2023-04-10T11:56:48.481Z,38.08
2023-04-10T11:57:48.915Z,40.49
2023-04-10T11:58:49.853Z,39.14
2023-04-10T11:59:50.522Z,38.95
2023-04-10T12:00:51.467Z,40.7
2023-04-10T12:01:51.797Z,40.22
2023-04-10T12:02:53.183Z,39.16
2023-04-10T12:03:54.058Z,36.85
2023-04-10T12:04:55.032Z,38.2
2023-04-10T12:05:55.410Z,39.74
2023-04-10T12:06:55.858Z,39.74
2023-04-10T12:07:55.890Z,39.91
2023-04-10T12:08:57.293Z,38.39
2023-04-10T12:09:57.592Z,40.32
2023-04-10T12:10:58.325Z,40.12
2023-04-10T12:11:59.157Z,38.01
2023-04-10T12:12:59.986Z,37.35
2023-04-10T12:14:01.003Z,38.89
2023-04-10T12:15:01.752Z,38.31
2023-04-10T12:16:02.587Z,38.02
2023-04-10T12:17:03.337Z,41.5
2023-04-10T12:18:03.950Z,39.18
2023-04-10T12:19:04.524Z,40.34
2023-04-10T12:20:05.089Z,40.44
2023-04-10T12:21:07.554Z,39.18
2023-04-10T12:22:06.174Z,37.85
2023-04-10T12:23:06.895Z,38.43
2023-04-10T12:24:07.445Z,38.81
2023-04-10T12:25:08.011Z,37.37
2023-04-10T12:26:07.974Z,37.56
2023-04-10T12:27:08.979Z,39.01
2023-04-10T12:28:09.433Z,39.66
2023-04-10T12:29:10.351Z,39.86
2023-04-10T12:30:11.057Z,38.79
2023-04-10T12:31:12.115Z,37.73
2023-04-10T12:32:13.161Z,35.98
2023-04-10T12:33:14.045Z,38.66
2023-04-10T12:34:16.544Z,38.37
2023-04-10T12:35:15.456Z,36.25
2023-04-10T12:36:15.905Z,37.12
2023-04-10T12:37:16.634Z,38.28
2023-04-10T12:38:17.057Z,38.56
2023-04-10T12:39:17.794Z,38.68
2023-04-10T12:40:18.307Z,38.97
2023-04-10T12:41:18.659Z,38.85
2023-04-10T12:42:18.847Z,40.32
2023-04-10T12:43:19.584Z,38.39
2023-04-10T12:44:19.508Z,37.25
2023-04-10T12:45:20.235Z,37.83
2023-04-10T12:46:20.790Z,37.45
2023-04-10T12:47:21.065Z,36.09
2023-04-10T12:48:21.741Z,35.11
2023-04-10T12:49:22.433Z,36.15
2023-04-10T12:50:23.194Z,36.61
2023-04-10T12:51:23.544Z,38.35
2023-04-10T12:52:23.841Z,38.93
2023-04-10T12:53:24.794Z,41.44
2023-04-10T12:54:25.570Z,42.02
2023-04-10T12:55:26.433Z,42.49
2023-04-10T12:56:26.819Z,40.69
2023-04-10T12:57:27.777Z,37.31
2023-04-10T12:58:28.493Z,38.28
2023-04-10T12:59:29.930Z,40.11
2023-04-10T13:00:29.843Z,39.91
2023-04-10T13:01:30.589Z,39.43
2023-04-10T13:02:31.255Z,41.36
2023-04-10T13:03:32.483Z,40.22
2023-04-10T13:04:33.425Z,38.68
2023-04-10T13:05:33.996Z,39.54
2023-04-10T13:06:34.722Z,40.9